sensor_id;sensor_type;location;lat;lon;timestamp;P1;durP1;ratioP1;P2;durP2;ratioP2
37895;SDS011;23733;53.254;10.430;2022-12-26T00:00:13;15.10;;;7.17;;
37895;SDS011;23733;53.254;10.430;2022-12-26T00:02:40;13.03;;;6.87;;
37895;SDS011;23733;53.254;10.430;2022-12-26T00:05:06;12.23;;;6.77;;
37895;SDS011;23733;53.254;10.430;2022-12-26T00:07:33;13.80;;;7.13;;
37895;SDS011;23733;53.254;10.430;2022-12-26T00:09:59;10.57;;;6.27;;
37895;SDS011;23733;53.254;10.430;2022-12-26T00:12:25;10.83;;;6.43;;
37895;SDS011;23733;53.254;10.430;2022-12-26T00:14:52;12.50;;;6.47;;
37895;SDS011;23733;53.254;10.430;2022-12-26T00:17:18;11.10;;;6.17;;
37895;SDS011;23733;53.254;10.430;2022-12-26T00:19:44;14.70;;;7.47;;
37895;SDS011;23733;53.254;10.430;2022-12-26T00:22:11;15.47;;;7.03;;
37895;SDS011;23733;53.254;10.430;2022-12-26T00:24:37;13.90;;;7.00;;
37895;SDS011;23733;53.254;10.430;2022-12-26T00:27:03;10.77;;;6.20;;
37895;SDS011;23733;53.254;10.430;2022-12-26T00:29:29;11.83;;;6.53;;
37895;SDS011;23733;53.254;10.430;2022-12-26T00:31:56;10.80;;;6.10;;
37895;SDS011;23733;53.254;10.430;2022-12-26T00:34:22;13.17;;;6.13;;
37895;SDS011;23733;53.254;10.430;2022-12-26T00:36:48;14.53;;;6.63;;
37895;SDS011;23733;53.254;10.430;2022-12-26T00:39:15;10.93;;;5.83;;
37895;SDS011;23733;53.254;10.430;2022-12-26T00:41:41;11.23;;;5.80;;
37895;SDS011;23733;53.254;10.430;2022-12-26T00:44:08;8.20;;;4.90;;
37895;SDS011;23733;53.254;10.430;2022-12-26T00:46:34;11.30;;;6.00;;
37895;SDS011;23733;53.254;10.430;2022-12-26T00:49:00;10.17;;;5.77;;
37895;SDS011;23733;53.254;10.430;2022-12-26T00:51:27;10.60;;;5.80;;
37895;SDS011;23733;53.254;10.430;2022-12-26T00:53:53;8.70;;;5.37;;
37895;SDS011;23733;53.254;10.430;2022-12-26T00:56:20;8.83;;;5.67;;
37895;SDS011;23733;53.254;10.430;2022-12-26T00:58:46;9.03;;;5.47;;
37895;SDS011;23733;53.254;10.430;2022-12-26T01:01:14;8.63;;;5.40;;
37895;SDS011;23733;53.254;10.430;2022-12-26T01:03:42;7.50;;;5.07;;
37895;SDS011;23733;53.254;10.430;2022-12-26T01:06:08;7.67;;;5.30;;
37895;SDS011;23733;53.254;10.430;2022-12-26T01:08:35;9.37;;;5.87;;
37895;SDS011;23733;53.254;10.430;2022-12-26T01:11:02;8.70;;;5.57;;
37895;SDS011;23733;53.254;10.430;2022-12-26T01:13:29;9.53;;;6.00;;
37895;SDS011;23733;53.254;10.430;2022-12-26T01:15:55;10.57;;;6.30;;
37895;SDS011;23733;53.254;10.430;2022-12-26T01:18:21;8.37;;;5.40;;
37895;SDS011;23733;53.254;10.430;2022-12-26T01:20:48;8.50;;;5.50;;
37895;SDS011;23733;53.254;10.430;2022-12-26T01:23:15;10.93;;;6.20;;
37895;SDS011;23733;53.254;10.430;2022-12-26T01:25:41;10.20;;;6.30;;
37895;SDS011;23733;53.254;10.430;2022-12-26T01:28:08;8.30;;;5.43;;
37895;SDS011;23733;53.254;10.430;2022-12-26T01:30:34;9.87;;;6.13;;
37895;SDS011;23733;53.254;10.430;2022-12-26T01:33:01;7.77;;;5.33;;
37895;SDS011;23733;53.254;10.430;2022-12-26T01:35:30;6.90;;;5.20;;
37895;SDS011;23733;53.254;10.430;2022-12-26T01:37:57;9.67;;;5.93;;
37895;SDS011;23733;53.254;10.430;2022-12-26T01:40:23;7.73;;;5.47;;
37895;SDS011;23733;53.254;10.430;2022-12-26T01:42:49;10.77;;;6.60;;
37895;SDS011;23733;53.254;10.430;2022-12-26T01:45:19;7.43;;;5.13;;
37895;SDS011;23733;53.254;10.430;2022-12-26T01:47:51;9.63;;;5.97;;
37895;SDS011;23733;53.254;10.430;2022-12-26T01:50:40;12.73;;;6.70;;
37895;SDS011;23733;53.254;10.430;2022-12-26T01:53:11;10.80;;;6.53;;
37895;SDS011;23733;53.254;10.430;2022-12-26T01:55:40;9.70;;;5.67;;
37895;SDS011;23733;53.254;10.430;2022-12-26T01:58:09;10.70;;;5.90;;
37895;SDS011;23733;53.254;10.430;2022-12-26T02:00:37;14.93;;;7.17;;
37895;SDS011;23733;53.254;10.430;2022-12-26T02:03:05;14.70;;;7.47;;
37895;SDS011;23733;53.254;10.430;2022-12-26T02:05:51;12.20;;;6.23;;
37895;SDS011;23733;53.254;10.430;2022-12-26T02:08:18;15.53;;;7.40;;
37895;SDS011;23733;53.254;10.430;2022-12-26T02:10:50;13.80;;;6.80;;
37895;SDS011;23733;53.254;10.430;2022-12-26T02:13:18;13.03;;;6.70;;
37895;SDS011;23733;53.254;10.430;2022-12-26T02:15:45;10.97;;;6.23;;
37895;SDS011;23733;53.254;10.430;2022-12-26T02:18:11;14.73;;;7.07;;
37895;SDS011;23733;53.254;10.430;2022-12-26T02:20:43;15.30;;;7.13;;
37895;SDS011;23733;53.254;10.430;2022-12-26T02:30:41;10.67;;;6.23;;
37895;SDS011;23733;53.254;10.430;2022-12-26T02:33:17;11.77;;;6.17;;
37895;SDS011;23733;53.254;10.430;2022-12-26T02:35:50;15.03;;;7.37;;
37895;SDS011;23733;53.254;10.430;2022-12-26T02:38:27;11.77;;;6.27;;
37895;SDS011;23733;53.254;10.430;2022-12-26T02:41:17;14.33;;;7.33;;
37895;SDS011;23733;53.254;10.430;2022-12-26T02:43:52;10.50;;;6.20;;
37895;SDS011;23733;53.254;10.430;2022-12-26T02:46:38;12.53;;;6.57;;
37895;SDS011;23733;53.254;10.430;2022-12-26T02:53:17;11.17;;;6.70;;
37895;SDS011;23733;53.254;10.430;2022-12-26T02:55:40;10.97;;;6.53;;
37895;SDS011;23733;53.254;10.430;2022-12-26T02:58:29;11.90;;;6.67;;
37895;SDS011;23733;53.254;10.430;2022-12-26T03:01:24;16.87;;;8.03;;
37895;SDS011;23733;53.254;10.430;2022-12-26T03:04:11;12.10;;;6.93;;
37895;SDS011;23733;53.254;10.430;2022-12-26T03:06:57;17.67;;;8.00;;
37895;SDS011;23733;53.254;10.430;2022-12-26T03:09:43;12.00;;;6.70;;
37895;SDS011;23733;53.254;10.430;2022-12-26T03:15:19;16.57;;;6.93;;
37895;SDS011;23733;53.254;10.430;2022-12-26T03:17:48;13.03;;;6.47;;
37895;SDS011;23733;53.254;10.430;2022-12-26T03:20:17;15.17;;;6.90;;
37895;SDS011;23733;53.254;10.430;2022-12-26T03:22:50;18.10;;;7.90;;
37895;SDS011;23733;53.254;10.430;2022-12-26T03:25:37;22.77;;;8.77;;
37895;SDS011;23733;53.254;10.430;2022-12-26T03:28:24;13.00;;;6.37;;
37895;SDS011;23733;53.254;10.430;2022-12-26T03:30:51;15.57;;;7.37;;
37895;SDS011;23733;53.254;10.430;2022-12-26T03:33:18;12.03;;;6.27;;
37895;SDS011;23733;53.254;10.430;2022-12-26T03:36:10;16.87;;;7.80;;
37895;SDS011;23733;53.254;10.430;2022-12-26T03:38:45;12.23;;;6.53;;
37895;SDS011;23733;53.254;10.430;2022-12-26T03:41:30;13.50;;;6.50;;
37895;SDS011;23733;53.254;10.430;2022-12-26T03:44:27;10.57;;;6.13;;
37895;SDS011;23733;53.254;10.430;2022-12-26T03:50:21;13.50;;;6.93;;
37895;SDS011;23733;53.254;10.430;2022-12-26T03:53:15;12.60;;;6.60;;
37895;SDS011;23733;53.254;10.430;2022-12-26T03:58:56;16.83;;;7.30;;
37895;SDS011;23733;53.254;10.430;2022-12-26T04:01:44;21.40;;;8.83;;
37895;SDS011;23733;53.254;10.430;2022-12-26T04:04:31;11.27;;;6.57;;
37895;SDS011;23733;53.254;10.430;2022-12-26T04:07:24;12.73;;;5.90;;
37895;SDS011;23733;53.254;10.430;2022-12-26T04:13:16;10.07;;;5.80;;
37895;SDS011;23733;53.254;10.430;2022-12-26T04:16:04;12.17;;;6.03;;
37895;SDS011;23733;53.254;10.430;2022-12-26T04:19:18;10.03;;;5.87;;
37895;SDS011;23733;53.254;10.430;2022-12-26T04:24:49;10.33;;;5.67;;
37895;SDS011;23733;53.254;10.430;2022-12-26T04:27:36;9.67;;;5.73;;
37895;SDS011;23733;53.254;10.430;2022-12-26T04:30:21;9.33;;;5.77;;
37895;SDS011;23733;53.254;10.430;2022-12-26T04:33:10;12.20;;;6.00;;
37895;SDS011;23733;53.254;10.430;2022-12-26T04:36:16;8.87;;;5.70;;
37895;SDS011;23733;53.254;10.430;2022-12-26T04:39:04;8.50;;;5.07;;
37895;SDS011;23733;53.254;10.430;2022-12-26T04:41:50;15.10;;;6.60;;
37895;SDS011;23733;53.254;10.430;2022-12-26T04:44:35;15.27;;;6.37;;
37895;SDS011;23733;53.254;10.430;2022-12-26T04:47:02;8.87;;;5.27;;
37895;SDS011;23733;53.254;10.430;2022-12-26T04:49:28;6.97;;;4.50;;
37895;SDS011;23733;53.254;10.430;2022-12-26T04:52:14;8.50;;;5.60;;
37895;SDS011;23733;53.254;10.430;2022-12-26T04:54:40;8.57;;;5.40;;
37895;SDS011;23733;53.254;10.430;2022-12-26T04:57:07;11.10;;;6.00;;
37895;SDS011;23733;53.254;10.430;2022-12-26T04:59:33;11.07;;;6.23;;
37895;SDS011;23733;53.254;10.430;2022-12-26T05:01:59;9.43;;;6.13;;
37895;SDS011;23733;53.254;10.430;2022-12-26T05:04:44;12.67;;;6.60;;
37895;SDS011;23733;53.254;10.430;2022-12-26T05:07:30;7.60;;;5.43;;
37895;SDS011;23733;53.254;10.430;2022-12-26T05:10:17;9.03;;;5.80;;
37895;SDS011;23733;53.254;10.430;2022-12-26T05:12:44;11.33;;;6.20;;
37895;SDS011;23733;53.254;10.430;2022-12-26T05:15:10;10.70;;;6.20;;
37895;SDS011;23733;53.254;10.430;2022-12-26T05:17:37;7.13;;;4.83;;
37895;SDS011;23733;53.254;10.430;2022-12-26T05:20:22;7.33;;;5.07;;
37895;SDS011;23733;53.254;10.430;2022-12-26T05:22:55;7.97;;;5.40;;
37895;SDS011;23733;53.254;10.430;2022-12-26T05:25:41;7.67;;;4.93;;
37895;SDS011;23733;53.254;10.430;2022-12-26T05:28:27;6.77;;;4.13;;
37895;SDS011;23733;53.254;10.430;2022-12-26T05:31:06;6.23;;;4.30;;
37895;SDS011;23733;53.254;10.430;2022-12-26T05:33:32;8.27;;;4.80;;
37895;SDS011;23733;53.254;10.430;2022-12-26T05:36:21;7.57;;;4.70;;
37895;SDS011;23733;53.254;10.430;2022-12-26T05:38:48;8.20;;;4.17;;
37895;SDS011;23733;53.254;10.430;2022-12-26T05:41:15;5.10;;;3.87;;
37895;SDS011;23733;53.254;10.430;2022-12-26T05:43:42;5.60;;;3.43;;
37895;SDS011;23733;53.254;10.430;2022-12-26T05:46:08;4.70;;;3.60;;
37895;SDS011;23733;53.254;10.430;2022-12-26T05:48:34;4.07;;;3.20;;
37895;SDS011;23733;53.254;10.430;2022-12-26T05:51:01;4.70;;;3.50;;
37895;SDS011;23733;53.254;10.430;2022-12-26T05:53:28;6.40;;;4.17;;
37895;SDS011;23733;53.254;10.430;2022-12-26T05:55:55;5.17;;;4.00;;
37895;SDS011;23733;53.254;10.430;2022-12-26T05:58:26;3.83;;;3.10;;
37895;SDS011;23733;53.254;10.430;2022-12-26T06:01:02;4.70;;;3.40;;
37895;SDS011;23733;53.254;10.430;2022-12-26T06:03:28;4.17;;;3.00;;
37895;SDS011;23733;53.254;10.430;2022-12-26T06:05:55;5.30;;;3.50;;
37895;SDS011;23733;53.254;10.430;2022-12-26T06:08:22;4.93;;;3.37;;
37895;SDS011;23733;53.254;10.430;2022-12-26T06:10:48;5.00;;;3.47;;
37895;SDS011;23733;53.254;10.430;2022-12-26T06:13:14;3.50;;;2.90;;
37895;SDS011;23733;53.254;10.430;2022-12-26T06:15:40;6.67;;;3.30;;
37895;SDS011;23733;53.254;10.430;2022-12-26T06:18:07;3.97;;;3.20;;
37895;SDS011;23733;53.254;10.430;2022-12-26T06:20:33;2.80;;;2.47;;
37895;SDS011;23733;53.254;10.430;2022-12-26T06:22:59;3.40;;;2.80;;
37895;SDS011;23733;53.254;10.430;2022-12-26T06:25:26;3.63;;;2.70;;
37895;SDS011;23733;53.254;10.430;2022-12-26T06:27:52;3.63;;;2.73;;
37895;SDS011;23733;53.254;10.430;2022-12-26T06:30:18;3.90;;;2.90;;
37895;SDS011;23733;53.254;10.430;2022-12-26T06:32:45;3.90;;;3.00;;
37895;SDS011;23733;53.254;10.430;2022-12-26T06:35:11;3.10;;;2.80;;
37895;SDS011;23733;53.254;10.430;2022-12-26T06:37:37;4.80;;;3.30;;
37895;SDS011;23733;53.254;10.430;2022-12-26T06:40:05;2.83;;;2.20;;
37895;SDS011;23733;53.254;10.430;2022-12-26T06:42:31;2.60;;;2.10;;
37895;SDS011;23733;53.254;10.430;2022-12-26T06:44:57;3.90;;;2.90;;
37895;SDS011;23733;53.254;10.430;2022-12-26T06:47:23;3.60;;;2.43;;
37895;SDS011;23733;53.254;10.430;2022-12-26T06:49:49;3.23;;;2.40;;
37895;SDS011;23733;53.254;10.430;2022-12-26T06:52:15;4.03;;;2.63;;
37895;SDS011;23733;53.254;10.430;2022-12-26T06:54:41;3.10;;;2.43;;
37895;SDS011;23733;53.254;10.430;2022-12-26T06:57:07;2.73;;;2.10;;
37895;SDS011;23733;53.254;10.430;2022-12-26T06:59:33;3.77;;;2.77;;
37895;SDS011;23733;53.254;10.430;2022-12-26T07:01:59;5.90;;;2.60;;
37895;SDS011;23733;53.254;10.430;2022-12-26T07:04:25;4.57;;;2.77;;
37895;SDS011;23733;53.254;10.430;2022-12-26T07:06:51;2.93;;;2.30;;
37895;SDS011;23733;53.254;10.430;2022-12-26T07:09:17;2.83;;;2.43;;
37895;SDS011;23733;53.254;10.430;2022-12-26T07:11:45;2.80;;;2.40;;
37895;SDS011;23733;53.254;10.430;2022-12-26T07:14:13;5.80;;;3.40;;
37895;SDS011;23733;53.254;10.430;2022-12-26T07:16:40;4.03;;;3.20;;
37895;SDS011;23733;53.254;10.430;2022-12-26T07:19:08;5.83;;;3.83;;
37895;SDS011;23733;53.254;10.430;2022-12-26T07:21:35;5.30;;;3.70;;
37895;SDS011;23733;53.254;10.430;2022-12-26T07:24:01;7.80;;;4.80;;
37895;SDS011;23733;53.254;10.430;2022-12-26T07:26:27;8.37;;;4.60;;
37895;SDS011;23733;53.254;10.430;2022-12-26T07:28:57;10.47;;;5.70;;
37895;SDS011;23733;53.254;10.430;2022-12-26T07:31:24;7.73;;;4.93;;
37895;SDS011;23733;53.254;10.430;2022-12-26T07:33:53;11.97;;;6.63;;
37895;SDS011;23733;53.254;10.430;2022-12-26T07:36:20;9.50;;;5.83;;
37895;SDS011;23733;53.254;10.430;2022-12-26T07:38:47;15.27;;;7.13;;
37895;SDS011;23733;53.254;10.430;2022-12-26T07:41:13;18.23;;;8.40;;
37895;SDS011;23733;53.254;10.430;2022-12-26T07:43:57;13.97;;;8.00;;
37895;SDS011;23733;53.254;10.430;2022-12-26T07:46:23;19.37;;;9.27;;
37895;SDS011;23733;53.254;10.430;2022-12-26T07:48:49;19.53;;;9.47;;
37895;SDS011;23733;53.254;10.430;2022-12-26T07:51:15;18.30;;;9.70;;
37895;SDS011;23733;53.254;10.430;2022-12-26T07:53:41;15.97;;;8.33;;
37895;SDS011;23733;53.254;10.430;2022-12-26T07:56:07;15.50;;;8.77;;
37895;SDS011;23733;53.254;10.430;2022-12-26T07:58:33;21.07;;;9.77;;
37895;SDS011;23733;53.254;10.430;2022-12-26T08:01:02;14.57;;;8.20;;
37895;SDS011;23733;53.254;10.430;2022-12-26T08:03:31;15.83;;;9.50;;
37895;SDS011;23733;53.254;10.430;2022-12-26T08:05:57;14.53;;;8.90;;
37895;SDS011;23733;53.254;10.430;2022-12-26T08:08:24;13.67;;;8.80;;
37895;SDS011;23733;53.254;10.430;2022-12-26T08:11:03;15.13;;;9.23;;
37895;SDS011;23733;53.254;10.430;2022-12-26T08:16:36;13.43;;;8.00;;
37895;SDS011;23733;53.254;10.430;2022-12-26T08:19:03;13.60;;;8.40;;
37895;SDS011;23733;53.254;10.430;2022-12-26T08:21:29;19.63;;;10.00;;
37895;SDS011;23733;53.254;10.430;2022-12-26T08:23:56;23.47;;;11.17;;
37895;SDS011;23733;53.254;10.430;2022-12-26T08:26:22;19.07;;;10.73;;
37895;SDS011;23733;53.254;10.430;2022-12-26T08:28:49;19.30;;;10.77;;
37895;SDS011;23733;53.254;10.430;2022-12-26T08:31:19;22.13;;;10.77;;
37895;SDS011;23733;53.254;10.430;2022-12-26T08:34:03;18.57;;;10.10;;
37895;SDS011;23733;53.254;10.430;2022-12-26T08:36:29;22.13;;;10.77;;
37895;SDS011;23733;53.254;10.430;2022-12-26T08:38:56;15.17;;;9.67;;
37895;SDS011;23733;53.254;10.430;2022-12-26T08:41:22;14.80;;;9.73;;
37895;SDS011;23733;53.254;10.430;2022-12-26T08:43:49;16.83;;;10.30;;
37895;SDS011;23733;53.254;10.430;2022-12-26T08:46:16;21.10;;;11.07;;
37895;SDS011;23733;53.254;10.430;2022-12-26T08:48:43;14.37;;;9.03;;
37895;SDS011;23733;53.254;10.430;2022-12-26T08:51:16;17.50;;;10.20;;
37895;SDS011;23733;53.254;10.430;2022-12-26T08:53:43;24.43;;;11.90;;
37895;SDS011;23733;53.254;10.430;2022-12-26T08:56:12;23.47;;;11.90;;
37895;SDS011;23733;53.254;10.430;2022-12-26T08:58:38;24.90;;;11.83;;
37895;SDS011;23733;53.254;10.430;2022-12-26T09:01:06;21.47;;;11.13;;
37895;SDS011;23733;53.254;10.430;2022-12-26T09:03:33;22.20;;;11.50;;
37895;SDS011;23733;53.254;10.430;2022-12-26T09:05:59;24.53;;;12.17;;
37895;SDS011;23733;53.254;10.430;2022-12-26T09:08:27;20.73;;;11.77;;
37895;SDS011;23733;53.254;10.430;2022-12-26T09:10:54;28.40;;;13.80;;
37895;SDS011;23733;53.254;10.430;2022-12-26T09:13:21;22.67;;;11.83;;
37895;SDS011;23733;53.254;10.430;2022-12-26T09:15:48;21.93;;;11.80;;
37895;SDS011;23733;53.254;10.430;2022-12-26T09:18:14;19.07;;;10.27;;
37895;SDS011;23733;53.254;10.430;2022-12-26T09:20:40;19.03;;;10.93;;
37895;SDS011;23733;53.254;10.430;2022-12-26T09:23:06;22.27;;;11.90;;
37895;SDS011;23733;53.254;10.430;2022-12-26T09:25:35;21.07;;;11.33;;
37895;SDS011;23733;53.254;10.430;2022-12-26T09:28:01;17.43;;;10.33;;
37895;SDS011;23733;53.254;10.430;2022-12-26T09:30:27;20.63;;;11.10;;
37895;SDS011;23733;53.254;10.430;2022-12-26T09:32:53;21.80;;;11.73;;
37895;SDS011;23733;53.254;10.430;2022-12-26T09:35:19;24.23;;;12.43;;
37895;SDS011;23733;53.254;10.430;2022-12-26T09:37:45;18.17;;;9.97;;
37895;SDS011;23733;53.254;10.430;2022-12-26T09:40:17;19.27;;;10.43;;
37895;SDS011;23733;53.254;10.430;2022-12-26T09:43:22;17.03;;;9.90;;
37895;SDS011;23733;53.254;10.430;2022-12-26T09:45:50;19.93;;;10.83;;
37895;SDS011;23733;53.254;10.430;2022-12-26T09:48:38;16.97;;;9.43;;
37895;SDS011;23733;53.254;10.430;2022-12-26T09:51:16;20.73;;;10.60;;
37895;SDS011;23733;53.254;10.430;2022-12-26T09:53:42;22.80;;;11.00;;
37895;SDS011;23733;53.254;10.430;2022-12-26T09:56:15;18.37;;;10.23;;
37895;SDS011;23733;53.254;10.430;2022-12-26T09:58:45;17.67;;;9.27;;
37895;SDS011;23733;53.254;10.430;2022-12-26T10:01:19;15.27;;;8.80;;
37895;SDS011;23733;53.254;10.430;2022-12-26T10:04:06;16.47;;;9.87;;
37895;SDS011;23733;53.254;10.430;2022-12-26T10:06:37;16.07;;;9.53;;
37895;SDS011;23733;53.254;10.430;2022-12-26T10:12:16;15.93;;;9.43;;
37895;SDS011;23733;53.254;10.430;2022-12-26T10:14:54;17.07;;;8.93;;
37895;SDS011;23733;53.254;10.430;2022-12-26T10:20:01;18.40;;;10.23;;
37895;SDS011;23733;53.254;10.430;2022-12-26T10:25:24;18.50;;;10.27;;
37895;SDS011;23733;53.254;10.430;2022-12-26T10:28:31;21.30;;;10.70;;
37895;SDS011;23733;53.254;10.430;2022-12-26T10:34:07;16.87;;;9.90;;
37895;SDS011;23733;53.254;10.430;2022-12-26T10:36:48;14.60;;;9.20;;
37895;SDS011;23733;53.254;10.430;2022-12-26T10:39:25;17.77;;;10.00;;
37895;SDS011;23733;53.254;10.430;2022-12-26T10:41:54;20.10;;;10.57;;
37895;SDS011;23733;53.254;10.430;2022-12-26T10:44:26;15.37;;;9.63;;
37895;SDS011;23733;53.254;10.430;2022-12-26T10:49:44;17.47;;;9.40;;
37895;SDS011;23733;53.254;10.430;2022-12-26T10:52:15;19.00;;;10.63;;
37895;SDS011;23733;53.254;10.430;2022-12-26T10:54:44;17.20;;;9.60;;
37895;SDS011;23733;53.254;10.430;2022-12-26T10:57:13;15.70;;;9.27;;
37895;SDS011;23733;53.254;10.430;2022-12-26T10:59:44;17.87;;;9.30;;
37895;SDS011;23733;53.254;10.430;2022-12-26T11:04:56;14.83;;;8.80;;
37895;SDS011;23733;53.254;10.430;2022-12-26T11:07:22;15.40;;;9.63;;
37895;SDS011;23733;53.254;10.430;2022-12-26T11:09:50;14.97;;;9.03;;
37895;SDS011;23733;53.254;10.430;2022-12-26T11:12:22;16.43;;;10.47;;
37895;SDS011;23733;53.254;10.430;2022-12-26T11:14:49;16.63;;;8.87;;
37895;SDS011;23733;53.254;10.430;2022-12-26T11:17:23;16.23;;;9.50;;
37895;SDS011;23733;53.254;10.430;2022-12-26T11:22:40;22.63;;;8.83;;
37895;SDS011;23733;53.254;10.430;2022-12-26T11:25:11;14.70;;;8.37;;
37895;SDS011;23733;53.254;10.430;2022-12-26T11:27:42;9.37;;;6.77;;
37895;SDS011;23733;53.254;10.430;2022-12-26T11:32:39;10.37;;;6.47;;
37895;SDS011;23733;53.254;10.430;2022-12-26T11:35:15;12.27;;;7.67;;
37895;SDS011;23733;53.254;10.430;2022-12-26T11:37:54;11.37;;;7.03;;
37895;SDS011;23733;53.254;10.430;2022-12-26T11:40:23;11.13;;;6.43;;
37895;SDS011;23733;53.254;10.430;2022-12-26T11:42:58;10.93;;;6.27;;
37895;SDS011;23733;53.254;10.430;2022-12-26T11:45:27;11.73;;;5.93;;
37895;SDS011;23733;53.254;10.430;2022-12-26T11:47:56;9.07;;;6.00;;
37895;SDS011;23733;53.254;10.430;2022-12-26T11:50:28;9.83;;;6.37;;
37895;SDS011;23733;53.254;10.430;2022-12-26T11:55:29;9.53;;;5.47;;
37895;SDS011;23733;53.254;10.430;2022-12-26T12:00:42;10.23;;;5.77;;
37895;SDS011;23733;53.254;10.430;2022-12-26T12:03:31;10.20;;;5.40;;
37895;SDS011;23733;53.254;10.430;2022-12-26T12:12:10;9.70;;;5.27;;
37895;SDS011;23733;53.254;10.430;2022-12-26T12:20:27;9.83;;;4.90;;
37895;SDS011;23733;53.254;10.430;2022-12-26T12:31:28;5.40;;;4.30;;
37895;SDS011;23733;53.254;10.430;2022-12-26T12:37:30;11.33;;;4.77;;
37895;SDS011;23733;53.254;10.430;2022-12-26T12:40:20;9.97;;;4.37;;
37895;SDS011;23733;53.254;10.430;2022-12-26T12:48:50;8.87;;;4.37;;
37895;SDS011;23733;53.254;10.430;2022-12-26T12:51:40;7.70;;;4.97;;
37895;SDS011;23733;53.254;10.430;2022-12-26T12:59:41;7.97;;;4.63;;
37895;SDS011;23733;53.254;10.430;2022-12-26T13:02:24;7.23;;;4.50;;
37895;SDS011;23733;53.254;10.430;2022-12-26T13:13:48;8.00;;;4.00;;
37895;SDS011;23733;53.254;10.430;2022-12-26T13:16:28;8.57;;;4.17;;
37895;SDS011;23733;53.254;10.430;2022-12-26T13:19:00;6.40;;;4.03;;
37895;SDS011;23733;53.254;10.430;2022-12-26T13:21:33;5.80;;;4.23;;
37895;SDS011;23733;53.254;10.430;2022-12-26T13:24:03;6.40;;;4.10;;
37895;SDS011;23733;53.254;10.430;2022-12-26T13:29:51;5.70;;;3.70;;
37895;SDS011;23733;53.254;10.430;2022-12-26T13:32:19;9.23;;;3.70;;
37895;SDS011;23733;53.254;10.430;2022-12-26T13:34:55;6.27;;;3.63;;
37895;SDS011;23733;53.254;10.430;2022-12-26T13:42:35;5.60;;;2.60;;
37895;SDS011;23733;53.254;10.430;2022-12-26T13:48:45;6.00;;;2.73;;
37895;SDS011;23733;53.254;10.430;2022-12-26T13:50:57;4.57;;;2.63;;
37895;SDS011;23733;53.254;10.430;2022-12-26T13:56:03;5.20;;;2.43;;
37895;SDS011;23733;53.254;10.430;2022-12-26T13:59:10;4.60;;;2.97;;
37895;SDS011;23733;53.254;10.430;2022-12-26T14:04:46;4.53;;;2.27;;
37895;SDS011;23733;53.254;10.430;2022-12-26T14:10:03;5.30;;;2.40;;
37895;SDS011;23733;53.254;10.430;2022-12-26T14:21:08;3.27;;;2.23;;
37895;SDS011;23733;53.254;10.430;2022-12-26T14:23:25;3.63;;;1.83;;
37895;SDS011;23733;53.254;10.430;2022-12-26T14:36:42;3.33;;;0.93;;
37895;SDS011;23733;53.254;10.430;2022-12-26T14:39:26;6.47;;;1.07;;
37895;SDS011;23733;53.254;10.430;2022-12-26T14:44:55;7.00;;;1.20;;
37895;SDS011;23733;53.254;10.430;2022-12-26T14:47:35;2.37;;;0.73;;
37895;SDS011;23733;53.254;10.430;2022-12-26T14:52:50;2.93;;;0.97;;
37895;SDS011;23733;53.254;10.430;2022-12-26T14:55:40;1.70;;;0.87;;
37895;SDS011;23733;53.254;10.430;2022-12-26T15:00:51;1.90;;;0.87;;
37895;SDS011;23733;53.254;10.430;2022-12-26T15:03:22;1.77;;;0.80;;
37895;SDS011;23733;53.254;10.430;2022-12-26T15:05:50;1.40;;;0.70;;
37895;SDS011;23733;53.254;10.430;2022-12-26T15:13:41;2.60;;;0.80;;
37895;SDS011;23733;53.254;10.430;2022-12-26T15:16:15;3.93;;;1.00;;
37895;SDS011;23733;53.254;10.430;2022-12-26T15:18:53;2.20;;;0.70;;
37895;SDS011;23733;53.254;10.430;2022-12-26T15:21:44;3.77;;;0.73;;
37895;SDS011;23733;53.254;10.430;2022-12-26T15:24:33;3.90;;;0.70;;
37895;SDS011;23733;53.254;10.430;2022-12-26T15:35:10;4.03;;;1.00;;
37895;SDS011;23733;53.254;10.430;2022-12-26T15:37:54;5.27;;;1.20;;
37895;SDS011;23733;53.254;10.430;2022-12-26T15:40:27;2.07;;;0.90;;
37895;SDS011;23733;53.254;10.430;2022-12-26T15:45:43;3.80;;;1.03;;
37895;SDS011;23733;53.254;10.430;2022-12-26T15:48:17;3.50;;;1.00;;
37895;SDS011;23733;53.254;10.430;2022-12-26T15:53:37;2.33;;;0.97;;
37895;SDS011;23733;53.254;10.430;2022-12-26T15:56:40;5.20;;;1.30;;
37895;SDS011;23733;53.254;10.430;2022-12-26T16:01:35;4.60;;;1.00;;
37895;SDS011;23733;53.254;10.430;2022-12-26T16:04:03;3.97;;;1.20;;
37895;SDS011;23733;53.254;10.430;2022-12-26T16:06:45;3.10;;;1.13;;
37895;SDS011;23733;53.254;10.430;2022-12-26T16:11:59;5.43;;;1.30;;
37895;SDS011;23733;53.254;10.430;2022-12-26T16:17:08;7.33;;;1.43;;
37895;SDS011;23733;53.254;10.430;2022-12-26T16:19:34;9.77;;;1.20;;
37895;SDS011;23733;53.254;10.430;2022-12-26T16:22:01;5.03;;;1.20;;
37895;SDS011;23733;53.254;10.430;2022-12-26T16:24:47;7.87;;;1.47;;
37895;SDS011;23733;53.254;10.430;2022-12-26T16:27:22;5.77;;;1.30;;
37895;SDS011;23733;53.254;10.430;2022-12-26T16:29:49;4.37;;;1.40;;
37895;SDS011;23733;53.254;10.430;2022-12-26T16:32:19;11.07;;;1.77;;
37895;SDS011;23733;53.254;10.430;2022-12-26T16:34:46;5.97;;;1.40;;
37895;SDS011;23733;53.254;10.430;2022-12-26T16:37:17;8.57;;;1.53;;
37895;SDS011;23733;53.254;10.430;2022-12-26T16:39:45;11.83;;;1.80;;
37895;SDS011;23733;53.254;10.430;2022-12-26T16:42:29;9.40;;;1.80;;
37895;SDS011;23733;53.254;10.430;2022-12-26T16:44:56;3.43;;;1.70;;
37895;SDS011;23733;53.254;10.430;2022-12-26T16:47:22;12.67;;;2.23;;
37895;SDS011;23733;53.254;10.430;2022-12-26T16:49:49;8.10;;;2.70;;
37895;SDS011;23733;53.254;10.430;2022-12-26T16:52:35;12.13;;;2.00;;
37895;SDS011;23733;53.254;10.430;2022-12-26T16:57:47;6.37;;;1.93;;
37895;SDS011;23733;53.254;10.430;2022-12-26T17:00:18;9.30;;;2.20;;
37895;SDS011;23733;53.254;10.430;2022-12-26T17:02:45;8.10;;;2.10;;
37895;SDS011;23733;53.254;10.430;2022-12-26T17:05:17;6.03;;;1.40;;
37895;SDS011;23733;53.254;10.430;2022-12-26T17:07:46;5.37;;;2.10;;
37895;SDS011;23733;53.254;10.430;2022-12-26T17:10:17;5.20;;;1.63;;
37895;SDS011;23733;53.254;10.430;2022-12-26T17:12:45;9.17;;;2.13;;
37895;SDS011;23733;53.254;10.430;2022-12-26T17:15:19;8.33;;;2.00;;
37895;SDS011;23733;53.254;10.430;2022-12-26T17:17:46;4.23;;;1.57;;
37895;SDS011;23733;53.254;10.430;2022-12-26T17:22:48;14.67;;;2.27;;
37895;SDS011;23733;53.254;10.430;2022-12-26T17:30:49;9.50;;;2.20;;
37895;SDS011;23733;53.254;10.430;2022-12-26T17:33:24;11.90;;;2.30;;
37895;SDS011;23733;53.254;10.430;2022-12-26T17:35:53;10.67;;;1.90;;
37895;SDS011;23733;53.254;10.430;2022-12-26T17:38:24;12.10;;;2.33;;
37895;SDS011;23733;53.254;10.430;2022-12-26T17:40:54;11.70;;;2.57;;
37895;SDS011;23733;53.254;10.430;2022-12-26T17:43:22;8.73;;;1.90;;
37895;SDS011;23733;53.254;10.430;2022-12-26T17:45:49;9.83;;;2.30;;
37895;SDS011;23733;53.254;10.430;2022-12-26T17:48:16;11.70;;;3.07;;
37895;SDS011;23733;53.254;10.430;2022-12-26T17:50:43;10.53;;;2.70;;
37895;SDS011;23733;53.254;10.430;2022-12-26T17:53:32;7.90;;;2.40;;
37895;SDS011;23733;53.254;10.430;2022-12-26T17:56:00;10.57;;;2.30;;
37895;SDS011;23733;53.254;10.430;2022-12-26T17:58:27;10.73;;;2.03;;
37895;SDS011;23733;53.254;10.430;2022-12-26T18:00:53;11.80;;;2.10;;